Aviation Weather View - Albury, NSW
Albury
METAR YMAY 200930Z 30004KT 9999 27/12 Q1011
ADVISORY INFORMATION ONLY.
Information and images sourced on a "best effort" basis from
our own station 2.7NM north of the field at 1016ft AMSL.
Weather information is NOT from the Albury Airport.

Contact Ross on 0409-578-660
Updated 0946Z (20-Mar-2019 at 20:46:07 local)
Temperature 26.5 Deg C
QNH is 1013
Humidity is 40% RH
Dewpoint is 11.8 Deg C
Estimated Cloudbase is 7000 feet amsl
Wind: 2 KT from 294 degrees magnetic (282 true)
Runway 07 Crosswind 1KT Left to Right 1KT downwind
Runway 25 Crosswind 1KT Right to Left
Wind last 10 minutes: Average 2 KT
Solar Insolation: 0 W/m^2

TWR: 123.25 SMC: 121.8 AWIS: 134.525 ATIS: 115.6/133.85
How to interpret the wind rose
Wind Rose
Solar Radiation Decoded METAR data
Albury Airport (94896, YMAY)
WMO Index: 95896
ID Name: YMAY
Date/Time: 20-Mar-2019 0930 UTC
Lat/Lon: 36.07S 146.95E
Wind: 300 deg true at 04.0 knots
Temperature: 26.5 deg C
Dewpoint: 11.8 deg C
QNH: 1011.9
Rain since 9am: 0.0
Rain last 10 mins: 0.0
Visibility: -9999 metres
AutoVisibility: 10000 metres
Max Wind Gust last 10 mins: 04.0 knots

Calculated humidity: 40.0 %RH